sensor_id;sensor_type;location;lat;lon;timestamp;P1;durP1;ratioP1;P2;durP2;ratioP2
57856;SDS011;43683;48.650;9.290;2023-09-18T00:00:40;4.72;;;2.40;;
57856;SDS011;43683;48.650;9.290;2023-09-18T00:03:07;4.90;;;2.60;;
57856;SDS011;43683;48.650;9.290;2023-09-18T00:05:33;5.45;;;2.67;;
57856;SDS011;43683;48.650;9.290;2023-09-18T00:07:59;3.35;;;2.20;;
57856;SDS011;43683;48.650;9.290;2023-09-18T00:10:27;4.60;;;2.45;;
57856;SDS011;43683;48.650;9.290;2023-09-18T00:12:56;5.47;;;2.67;;
57856;SDS011;43683;48.650;9.290;2023-09-18T00:15:22;6.35;;;2.88;;
57856;SDS011;43683;48.650;9.290;2023-09-18T00:17:48;5.93;;;2.47;;
57856;SDS011;43683;48.650;9.290;2023-09-18T00:20:14;5.93;;;3.05;;
57856;SDS011;43683;48.650;9.290;2023-09-18T00:22:42;4.57;;;2.60;;
57856;SDS011;43683;48.650;9.290;2023-09-18T00:25:08;5.65;;;2.60;;
57856;SDS011;43683;48.650;9.290;2023-09-18T00:27:33;6.03;;;2.67;;
57856;SDS011;43683;48.650;9.290;2023-09-18T00:30:01;4.15;;;2.50;;
57856;SDS011;43683;48.650;9.290;2023-09-18T00:32:29;6.13;;;2.70;;
57856;SDS011;43683;48.650;9.290;2023-09-18T00:34:55;6.03;;;2.30;;
57856;SDS011;43683;48.650;9.290;2023-09-18T00:37:21;6.22;;;2.83;;
57856;SDS011;43683;48.650;9.290;2023-09-18T00:39:46;4.05;;;2.63;;
57856;SDS011;43683;48.650;9.290;2023-09-18T00:42:12;4.65;;;2.70;;
57856;SDS011;43683;48.650;9.290;2023-09-18T00:44:39;4.93;;;2.42;;
57856;SDS011;43683;48.650;9.290;2023-09-18T00:47:06;5.70;;;3.28;;
57856;SDS011;43683;48.650;9.290;2023-09-18T00:49:33;4.75;;;2.47;;
57856;SDS011;43683;48.650;9.290;2023-09-18T00:52:00;5.53;;;2.50;;
57856;SDS011;43683;48.650;9.290;2023-09-18T00:54:26;3.40;;;2.35;;
57856;SDS011;43683;48.650;9.290;2023-09-18T00:56:51;4.70;;;2.60;;
57856;SDS011;43683;48.650;9.290;2023-09-18T00:59:19;5.22;;;2.30;;
57856;SDS011;43683;48.650;9.290;2023-09-18T01:01:45;5.45;;;2.47;;
57856;SDS011;43683;48.650;9.290;2023-09-18T01:04:15;4.43;;;2.70;;
57856;SDS011;43683;48.650;9.290;2023-09-18T01:06:42;5.35;;;2.53;;
57856;SDS011;43683;48.650;9.290;2023-09-18T01:09:07;4.68;;;2.53;;
57856;SDS011;43683;48.650;9.290;2023-09-18T01:14:25;6.80;;;3.80;;
57856;SDS011;43683;48.650;9.290;2023-09-18T01:17:00;4.53;;;2.80;;
57856;SDS011;43683;48.650;9.290;2023-09-18T01:22:08;4.35;;;2.65;;
57856;SDS011;43683;48.650;9.290;2023-09-18T01:24:35;8.45;;;2.90;;
57856;SDS011;43683;48.650;9.290;2023-09-18T01:27:02;3.97;;;2.38;;
57856;SDS011;43683;48.650;9.290;2023-09-18T01:29:29;5.80;;;2.53;;
57856;SDS011;43683;48.650;9.290;2023-09-18T01:31:55;5.47;;;3.03;;
57856;SDS011;43683;48.650;9.290;2023-09-18T01:34:23;5.22;;;3.00;;
57856;SDS011;43683;48.650;9.290;2023-09-18T01:36:51;5.00;;;2.50;;
57856;SDS011;43683;48.650;9.290;2023-09-18T01:39:18;6.00;;;2.53;;
57856;SDS011;43683;48.650;9.290;2023-09-18T01:41:45;4.97;;;2.50;;
57856;SDS011;43683;48.650;9.290;2023-09-18T01:44:11;6.95;;;2.50;;
57856;SDS011;43683;48.650;9.290;2023-09-18T01:46:37;5.28;;;2.70;;
57856;SDS011;43683;48.650;9.290;2023-09-18T01:49:04;5.28;;;2.45;;
57856;SDS011;43683;48.650;9.290;2023-09-18T01:51:29;5.20;;;2.55;;
57856;SDS011;43683;48.650;9.290;2023-09-18T01:53:55;5.28;;;2.65;;
57856;SDS011;43683;48.650;9.290;2023-09-18T01:56:21;3.25;;;2.00;;
57856;SDS011;43683;48.650;9.290;2023-09-18T01:58:48;7.18;;;2.38;;
57856;SDS011;43683;48.650;9.290;2023-09-18T02:01:14;4.90;;;2.20;;
57856;SDS011;43683;48.650;9.290;2023-09-18T02:03:39;3.55;;;2.28;;
57856;SDS011;43683;48.650;9.290;2023-09-18T02:06:09;4.93;;;2.45;;
57856;SDS011;43683;48.650;9.290;2023-09-18T02:08:35;4.75;;;2.30;;
57856;SDS011;43683;48.650;9.290;2023-09-18T02:11:00;4.53;;;2.30;;
57856;SDS011;43683;48.650;9.290;2023-09-18T02:13:27;7.80;;;2.25;;
57856;SDS011;43683;48.650;9.290;2023-09-18T02:15:53;5.95;;;3.22;;
57856;SDS011;43683;48.650;9.290;2023-09-18T02:18:19;4.20;;;2.40;;
57856;SDS011;43683;48.650;9.290;2023-09-18T02:20:45;4.22;;;2.28;;
57856;SDS011;43683;48.650;9.290;2023-09-18T02:23:13;4.95;;;2.50;;
57856;SDS011;43683;48.650;9.290;2023-09-18T02:25:39;5.93;;;2.30;;
57856;SDS011;43683;48.650;9.290;2023-09-18T02:28:05;4.88;;;2.58;;
57856;SDS011;43683;48.650;9.290;2023-09-18T02:30:31;5.68;;;2.50;;
57856;SDS011;43683;48.650;9.290;2023-09-18T02:32:57;6.10;;;2.97;;
57856;SDS011;43683;48.650;9.290;2023-09-18T02:35:24;5.20;;;2.35;;
57856;SDS011;43683;48.650;9.290;2023-09-18T02:37:50;4.65;;;2.80;;
57856;SDS011;43683;48.650;9.290;2023-09-18T02:40:15;5.28;;;2.40;;
57856;SDS011;43683;48.650;9.290;2023-09-18T02:42:41;5.25;;;2.40;;
57856;SDS011;43683;48.650;9.290;2023-09-18T02:45:07;5.32;;;2.40;;
57856;SDS011;43683;48.650;9.290;2023-09-18T02:47:33;5.93;;;2.50;;
57856;SDS011;43683;48.650;9.290;2023-09-18T02:49:59;5.72;;;2.70;;
57856;SDS011;43683;48.650;9.290;2023-09-18T02:52:24;4.70;;;2.50;;
57856;SDS011;43683;48.650;9.290;2023-09-18T02:54:50;5.43;;;2.10;;
57856;SDS011;43683;48.650;9.290;2023-09-18T02:57:16;7.43;;;2.75;;
57856;SDS011;43683;48.650;9.290;2023-09-18T02:59:41;4.30;;;2.22;;
57856;SDS011;43683;48.650;9.290;2023-09-18T03:02:07;5.75;;;2.25;;
57856;SDS011;43683;48.650;9.290;2023-09-18T03:04:32;4.25;;;2.42;;
57856;SDS011;43683;48.650;9.290;2023-09-18T03:06:58;7.03;;;2.58;;
57856;SDS011;43683;48.650;9.290;2023-09-18T03:09:23;4.93;;;2.40;;
57856;SDS011;43683;48.650;9.290;2023-09-18T03:11:49;4.82;;;2.60;;
57856;SDS011;43683;48.650;9.290;2023-09-18T03:14:15;5.35;;;2.50;;
57856;SDS011;43683;48.650;9.290;2023-09-18T03:16:40;6.07;;;3.15;;
57856;SDS011;43683;48.650;9.290;2023-09-18T03:19:06;6.43;;;2.60;;
57856;SDS011;43683;48.650;9.290;2023-09-18T03:21:31;6.07;;;2.40;;
57856;SDS011;43683;48.650;9.290;2023-09-18T03:23:58;6.77;;;3.00;;
57856;SDS011;43683;48.650;9.290;2023-09-18T03:26:24;6.70;;;2.85;;
57856;SDS011;43683;48.650;9.290;2023-09-18T03:28:50;6.32;;;2.72;;
57856;SDS011;43683;48.650;9.290;2023-09-18T03:31:15;5.90;;;2.58;;
57856;SDS011;43683;48.650;9.290;2023-09-18T03:33:41;4.10;;;2.55;;
57856;SDS011;43683;48.650;9.290;2023-09-18T03:36:06;3.83;;;2.17;;
57856;SDS011;43683;48.650;9.290;2023-09-18T03:38:33;5.38;;;2.80;;
57856;SDS011;43683;48.650;9.290;2023-09-18T03:41:00;4.85;;;2.50;;
57856;SDS011;43683;48.650;9.290;2023-09-18T03:43:26;6.65;;;2.42;;
57856;SDS011;43683;48.650;9.290;2023-09-18T03:45:52;5.60;;;3.08;;
57856;SDS011;43683;48.650;9.290;2023-09-18T03:48:17;6.43;;;2.40;;
57856;SDS011;43683;48.650;9.290;2023-09-18T03:50:43;6.65;;;2.25;;
57856;SDS011;43683;48.650;9.290;2023-09-18T03:53:09;5.45;;;2.63;;
57856;SDS011;43683;48.650;9.290;2023-09-18T03:55:35;4.20;;;2.67;;
57856;SDS011;43683;48.650;9.290;2023-09-18T03:58:00;6.10;;;2.47;;
57856;SDS011;43683;48.650;9.290;2023-09-18T04:00:26;4.35;;;2.10;;
57856;SDS011;43683;48.650;9.290;2023-09-18T04:02:52;6.78;;;2.40;;
57856;SDS011;43683;48.650;9.290;2023-09-18T04:05:17;6.93;;;2.03;;
57856;SDS011;43683;48.650;9.290;2023-09-18T04:07:43;5.85;;;2.35;;
57856;SDS011;43683;48.650;9.290;2023-09-18T04:12:43;6.32;;;2.45;;
57856;SDS011;43683;48.650;9.290;2023-09-18T04:15:11;4.22;;;2.20;;
57856;SDS011;43683;48.650;9.290;2023-09-18T04:17:39;5.28;;;2.60;;
57856;SDS011;43683;48.650;9.290;2023-09-18T04:20:04;4.57;;;2.28;;
57856;SDS011;43683;48.650;9.290;2023-09-18T04:22:31;5.18;;;2.05;;
57856;SDS011;43683;48.650;9.290;2023-09-18T04:24:56;5.95;;;2.25;;
57856;SDS011;43683;48.650;9.290;2023-09-18T04:27:22;5.00;;;2.40;;
57856;SDS011;43683;48.650;9.290;2023-09-18T04:29:47;7.50;;;2.80;;
57856;SDS011;43683;48.650;9.290;2023-09-18T04:32:13;6.35;;;2.50;;
57856;SDS011;43683;48.650;9.290;2023-09-18T04:34:38;5.45;;;2.50;;
57856;SDS011;43683;48.650;9.290;2023-09-18T04:37:04;5.50;;;2.40;;
57856;SDS011;43683;48.650;9.290;2023-09-18T04:39:29;3.58;;;2.28;;
57856;SDS011;43683;48.650;9.290;2023-09-18T04:41:55;4.70;;;2.28;;
57856;SDS011;43683;48.650;9.290;2023-09-18T04:44:21;6.32;;;2.60;;
57856;SDS011;43683;48.650;9.290;2023-09-18T04:46:46;5.47;;;2.22;;
57856;SDS011;43683;48.650;9.290;2023-09-18T04:49:12;7.90;;;2.60;;
57856;SDS011;43683;48.650;9.290;2023-09-18T04:51:38;7.03;;;2.42;;
57856;SDS011;43683;48.650;9.290;2023-09-18T04:54:06;6.13;;;2.40;;
57856;SDS011;43683;48.650;9.290;2023-09-18T04:56:32;5.50;;;2.20;;
57856;SDS011;43683;48.650;9.290;2023-09-18T04:58:58;6.75;;;2.83;;
57856;SDS011;43683;48.650;9.290;2023-09-18T05:01:23;4.40;;;2.10;;
57856;SDS011;43683;48.650;9.290;2023-09-18T05:03:49;5.38;;;2.28;;
57856;SDS011;43683;48.650;9.290;2023-09-18T05:06:16;7.50;;;2.97;;
57856;SDS011;43683;48.650;9.290;2023-09-18T05:08:42;6.28;;;2.67;;
57856;SDS011;43683;48.650;9.290;2023-09-18T05:11:09;9.98;;;2.80;;
57856;SDS011;43683;48.650;9.290;2023-09-18T05:13:34;4.15;;;2.25;;
57856;SDS011;43683;48.650;9.290;2023-09-18T05:16:00;7.40;;;2.55;;
57856;SDS011;43683;48.650;9.290;2023-09-18T05:18:26;7.65;;;2.15;;
57856;SDS011;43683;48.650;9.290;2023-09-18T05:20:51;4.78;;;2.50;;
57856;SDS011;43683;48.650;9.290;2023-09-18T05:23:17;7.13;;;3.10;;
57856;SDS011;43683;48.650;9.290;2023-09-18T05:25:44;5.57;;;2.75;;
57856;SDS011;43683;48.650;9.290;2023-09-18T05:28:09;7.20;;;3.63;;
57856;SDS011;43683;48.650;9.290;2023-09-18T05:30:36;7.30;;;2.55;;
57856;SDS011;43683;48.650;9.290;2023-09-18T05:33:05;6.10;;;3.53;;
57856;SDS011;43683;48.650;9.290;2023-09-18T05:35:36;3.28;;;2.03;;
57856;SDS011;43683;48.650;9.290;2023-09-18T05:38:06;4.30;;;2.00;;
57856;SDS011;43683;48.650;9.290;2023-09-18T05:40:32;5.43;;;2.20;;
57856;SDS011;43683;48.650;9.290;2023-09-18T05:42:57;6.90;;;2.60;;
57856;SDS011;43683;48.650;9.290;2023-09-18T05:45:23;3.92;;;2.10;;
57856;SDS011;43683;48.650;9.290;2023-09-18T05:47:51;5.18;;;2.10;;
57856;SDS011;43683;48.650;9.290;2023-09-18T05:50:18;8.10;;;2.35;;
57856;SDS011;43683;48.650;9.290;2023-09-18T05:52:44;6.85;;;2.33;;
57856;SDS011;43683;48.650;9.290;2023-09-18T05:55:10;4.63;;;2.33;;
57856;SDS011;43683;48.650;9.290;2023-09-18T05:57:37;6.60;;;2.30;;
57856;SDS011;43683;48.650;9.290;2023-09-18T06:00:03;5.97;;;2.22;;
57856;SDS011;43683;48.650;9.290;2023-09-18T06:02:30;4.32;;;2.10;;
57856;SDS011;43683;48.650;9.290;2023-09-18T06:04:56;5.28;;;2.00;;
57856;SDS011;43683;48.650;9.290;2023-09-18T06:07:25;4.85;;;2.08;;
57856;SDS011;43683;48.650;9.290;2023-09-18T06:09:52;7.47;;;2.35;;
57856;SDS011;43683;48.650;9.290;2023-09-18T06:12:18;6.63;;;2.10;;
57856;SDS011;43683;48.650;9.290;2023-09-18T06:14:44;5.45;;;1.90;;
57856;SDS011;43683;48.650;9.290;2023-09-18T06:17:11;4.57;;;2.03;;
57856;SDS011;43683;48.650;9.290;2023-09-18T06:19:37;4.38;;;2.00;;
57856;SDS011;43683;48.650;9.290;2023-09-18T06:22:02;9.70;;;2.45;;
57856;SDS011;43683;48.650;9.290;2023-09-18T06:24:28;6.88;;;2.05;;
57856;SDS011;43683;48.650;9.290;2023-09-18T06:26:54;5.55;;;1.92;;
57856;SDS011;43683;48.650;9.290;2023-09-18T06:29:19;4.95;;;1.70;;
57856;SDS011;43683;48.650;9.290;2023-09-18T06:31:45;5.82;;;1.90;;
57856;SDS011;43683;48.650;9.290;2023-09-18T06:34:11;5.47;;;2.08;;
57856;SDS011;43683;48.650;9.290;2023-09-18T06:36:37;4.07;;;1.80;;
57856;SDS011;43683;48.650;9.290;2023-09-18T06:39:03;3.55;;;1.70;;
57856;SDS011;43683;48.650;9.290;2023-09-18T06:41:28;3.83;;;1.70;;
57856;SDS011;43683;48.650;9.290;2023-09-18T06:43:54;6.40;;;2.03;;
57856;SDS011;43683;48.650;9.290;2023-09-18T06:46:19;4.60;;;1.55;;
57856;SDS011;43683;48.650;9.290;2023-09-18T06:48:45;8.48;;;2.42;;
57856;SDS011;43683;48.650;9.290;2023-09-18T06:51:14;3.53;;;1.63;;
57856;SDS011;43683;48.650;9.290;2023-09-18T06:53:40;6.63;;;2.10;;
57856;SDS011;43683;48.650;9.290;2023-09-18T06:56:05;5.25;;;1.95;;
57856;SDS011;43683;48.650;9.290;2023-09-18T06:58:31;4.50;;;1.85;;
57856;SDS011;43683;48.650;9.290;2023-09-18T07:00:56;3.90;;;2.20;;
57856;SDS011;43683;48.650;9.290;2023-09-18T07:03:22;7.03;;;2.05;;
57856;SDS011;43683;48.650;9.290;2023-09-18T07:05:48;4.00;;;2.00;;
57856;SDS011;43683;48.650;9.290;2023-09-18T07:08:14;5.50;;;2.00;;
57856;SDS011;43683;48.650;9.290;2023-09-18T07:10:44;5.80;;;1.90;;
57856;SDS011;43683;48.650;9.290;2023-09-18T07:13:10;4.55;;;1.85;;
57856;SDS011;43683;48.650;9.290;2023-09-18T07:15:36;3.93;;;1.57;;
57856;SDS011;43683;48.650;9.290;2023-09-18T07:18:02;4.75;;;1.40;;
57856;SDS011;43683;48.650;9.290;2023-09-18T07:20:28;4.95;;;1.67;;
57856;SDS011;43683;48.650;9.290;2023-09-18T07:22:53;3.30;;;1.75;;
57856;SDS011;43683;48.650;9.290;2023-09-18T07:25:19;4.78;;;1.75;;
57856;SDS011;43683;48.650;9.290;2023-09-18T07:27:45;5.60;;;1.55;;
57856;SDS011;43683;48.650;9.290;2023-09-18T07:30:11;3.75;;;1.50;;
57856;SDS011;43683;48.650;9.290;2023-09-18T07:32:38;5.63;;;1.50;;
57856;SDS011;43683;48.650;9.290;2023-09-18T07:35:06;6.10;;;1.80;;
57856;SDS011;43683;48.650;9.290;2023-09-18T07:37:32;3.45;;;1.15;;
57856;SDS011;43683;48.650;9.290;2023-09-18T07:39:58;6.53;;;1.98;;
57856;SDS011;43683;48.650;9.290;2023-09-18T07:42:24;3.80;;;1.50;;
57856;SDS011;43683;48.650;9.290;2023-09-18T07:44:50;5.78;;;1.65;;
57856;SDS011;43683;48.650;9.290;2023-09-18T07:47:16;3.63;;;1.50;;
57856;SDS011;43683;48.650;9.290;2023-09-18T07:49:41;2.75;;;1.30;;
57856;SDS011;43683;48.650;9.290;2023-09-18T07:52:07;4.55;;;1.30;;
57856;SDS011;43683;48.650;9.290;2023-09-18T07:54:32;5.72;;;1.27;;
57856;SDS011;43683;48.650;9.290;2023-09-18T07:56:58;4.20;;;1.48;;
57856;SDS011;43683;48.650;9.290;2023-09-18T07:59:25;3.88;;;1.45;;
57856;SDS011;43683;48.650;9.290;2023-09-18T08:01:50;4.20;;;1.20;;
57856;SDS011;43683;48.650;9.290;2023-09-18T08:04:17;4.88;;;1.25;;
57856;SDS011;43683;48.650;9.290;2023-09-18T08:06:43;3.67;;;1.23;;
57856;SDS011;43683;48.650;9.290;2023-09-18T08:09:08;3.35;;;1.67;;
57856;SDS011;43683;48.650;9.290;2023-09-18T08:11:40;1.88;;;0.98;;
57856;SDS011;43683;48.650;9.290;2023-09-18T08:14:07;4.63;;;1.42;;
57856;SDS011;43683;48.650;9.290;2023-09-18T08:16:33;3.65;;;1.10;;
57856;SDS011;43683;48.650;9.290;2023-09-18T08:19:00;1.85;;;1.05;;
57856;SDS011;43683;48.650;9.290;2023-09-18T08:21:26;3.58;;;1.10;;
57856;SDS011;43683;48.650;9.290;2023-09-18T08:23:54;3.35;;;1.38;;
57856;SDS011;43683;48.650;9.290;2023-09-18T08:26:20;3.58;;;1.40;;
57856;SDS011;43683;48.650;9.290;2023-09-18T08:28:46;4.35;;;1.23;;
57856;SDS011;43683;48.650;9.290;2023-09-18T08:31:12;3.28;;;1.25;;
57856;SDS011;43683;48.650;9.290;2023-09-18T08:33:39;4.43;;;1.52;;
57856;SDS011;43683;48.650;9.290;2023-09-18T08:36:04;4.65;;;1.63;;
57856;SDS011;43683;48.650;9.290;2023-09-18T08:38:30;3.42;;;1.15;;
57856;SDS011;43683;48.650;9.290;2023-09-18T08:40:57;0.90;;;0.85;;
57856;SDS011;43683;48.650;9.290;2023-09-18T08:43:22;2.90;;;0.90;;
57856;SDS011;43683;48.650;9.290;2023-09-18T08:45:53;4.50;;;1.52;;
57856;SDS011;43683;48.650;9.290;2023-09-18T08:48:20;3.15;;;0.90;;
57856;SDS011;43683;48.650;9.290;2023-09-18T08:50:47;3.80;;;1.40;;
57856;SDS011;43683;48.650;9.290;2023-09-18T08:53:13;4.10;;;1.00;;
57856;SDS011;43683;48.650;9.290;2023-09-18T08:55:40;3.30;;;1.02;;
57856;SDS011;43683;48.650;9.290;2023-09-18T08:58:06;2.95;;;1.00;;
57856;SDS011;43683;48.650;9.290;2023-09-18T09:00:33;2.45;;;1.20;;
57856;SDS011;43683;48.650;9.290;2023-09-18T09:03:00;2.50;;;1.00;;
57856;SDS011;43683;48.650;9.290;2023-09-18T09:05:27;3.78;;;1.35;;
57856;SDS011;43683;48.650;9.290;2023-09-18T09:07:53;3.30;;;1.00;;
57856;SDS011;43683;48.650;9.290;2023-09-18T09:10:19;4.10;;;1.17;;
57856;SDS011;43683;48.650;9.290;2023-09-18T09:12:49;5.32;;;1.40;;
57856;SDS011;43683;48.650;9.290;2023-09-18T09:15:18;3.58;;;1.30;;
57856;SDS011;43683;48.650;9.290;2023-09-18T09:17:49;4.70;;;1.48;;
57856;SDS011;43683;48.650;9.290;2023-09-18T09:20:17;4.97;;;1.52;;
57856;SDS011;43683;48.650;9.290;2023-09-18T09:22:46;3.47;;;1.08;;
57856;SDS011;43683;48.650;9.290;2023-09-18T09:25:21;1.38;;;1.00;;
57856;SDS011;43683;48.650;9.290;2023-09-18T09:27:48;1.25;;;0.98;;
57856;SDS011;43683;48.650;9.290;2023-09-18T09:30:27;2.45;;;1.13;;
57856;SDS011;43683;48.650;9.290;2023-09-18T09:32:54;4.53;;;1.83;;
57856;SDS011;43683;48.650;9.290;2023-09-18T09:35:22;4.00;;;1.15;;
57856;SDS011;43683;48.650;9.290;2023-09-18T09:37:52;3.28;;;1.25;;
57856;SDS011;43683;48.650;9.290;2023-09-18T09:40:21;1.75;;;1.20;;
57856;SDS011;43683;48.650;9.290;2023-09-18T09:42:47;2.70;;;1.10;;
57856;SDS011;43683;48.650;9.290;2023-09-18T09:45:16;2.67;;;0.98;;
57856;SDS011;43683;48.650;9.290;2023-09-18T09:47:43;3.90;;;1.40;;
57856;SDS011;43683;48.650;9.290;2023-09-18T09:50:10;3.40;;;1.15;;
57856;SDS011;43683;48.650;9.290;2023-09-18T09:52:42;2.75;;;1.23;;
57856;SDS011;43683;48.650;9.290;2023-09-18T09:58:04;2.85;;;1.25;;
57856;SDS011;43683;48.650;9.290;2023-09-18T10:03:17;3.63;;;1.52;;
57856;SDS011;43683;48.650;9.290;2023-09-18T10:05:46;2.58;;;1.02;;
57856;SDS011;43683;48.650;9.290;2023-09-18T10:08:16;3.10;;;1.23;;
57856;SDS011;43683;48.650;9.290;2023-09-18T10:10:45;1.77;;;1.20;;
57856;SDS011;43683;48.650;9.290;2023-09-18T10:13:15;2.78;;;0.85;;
57856;SDS011;43683;48.650;9.290;2023-09-18T10:15:57;4.28;;;1.45;;
57856;SDS011;43683;48.650;9.290;2023-09-18T10:21:25;2.33;;;1.00;;
57856;SDS011;43683;48.650;9.290;2023-09-18T10:26:35;1.73;;;0.82;;
57856;SDS011;43683;48.650;9.290;2023-09-18T10:29:12;1.35;;;0.90;;
57856;SDS011;43683;48.650;9.290;2023-09-18T10:31:39;1.50;;;0.77;;
57856;SDS011;43683;48.650;9.290;2023-09-18T10:34:07;1.52;;;1.00;;
57856;SDS011;43683;48.650;9.290;2023-09-18T10:36:34;3.13;;;1.23;;
57856;SDS011;43683;48.650;9.290;2023-09-18T10:39:01;2.58;;;0.93;;
57856;SDS011;43683;48.650;9.290;2023-09-18T10:41:33;3.33;;;1.33;;
57856;SDS011;43683;48.650;9.290;2023-09-18T10:43:59;1.73;;;1.03;;
57856;SDS011;43683;48.650;9.290;2023-09-18T10:46:26;1.73;;;0.90;;
57856;SDS011;43683;48.650;9.290;2023-09-18T10:48:52;3.60;;;1.20;;
57856;SDS011;43683;48.650;9.290;2023-09-18T10:51:22;1.60;;;1.10;;
57856;SDS011;43683;48.650;9.290;2023-09-18T10:53:48;2.28;;;1.20;;
57856;SDS011;43683;48.650;9.290;2023-09-18T10:56:19;2.40;;;1.20;;
57856;SDS011;43683;48.650;9.290;2023-09-18T10:58:45;2.85;;;1.65;;
57856;SDS011;43683;48.650;9.290;2023-09-18T11:01:11;2.15;;;1.30;;
57856;SDS011;43683;48.650;9.290;2023-09-18T11:03:38;2.80;;;1.93;;
57856;SDS011;43683;48.650;9.290;2023-09-18T11:06:05;2.70;;;1.50;;
57856;SDS011;43683;48.650;9.290;2023-09-18T11:08:34;4.13;;;1.33;;
57856;SDS011;43683;48.650;9.290;2023-09-18T11:11:09;2.80;;;1.15;;
57856;SDS011;43683;48.650;9.290;2023-09-18T11:13:38;2.28;;;1.17;;
57856;SDS011;43683;48.650;9.290;2023-09-18T11:16:16;3.05;;;0.93;;
57856;SDS011;43683;48.650;9.290;2023-09-18T11:18:47;1.77;;;0.98;;
57856;SDS011;43683;48.650;9.290;2023-09-18T11:21:17;2.40;;;1.13;;
57856;SDS011;43683;48.650;9.290;2023-09-18T11:23:48;1.30;;;1.00;;
57856;SDS011;43683;48.650;9.290;2023-09-18T11:26:30;3.25;;;1.10;;
57856;SDS011;43683;48.650;9.290;2023-09-18T11:29:00;2.55;;;1.02;;
57856;SDS011;43683;48.650;9.290;2023-09-18T11:36:48;4.45;;;1.15;;
57856;SDS011;43683;48.650;9.290;2023-09-18T11:39:32;1.98;;;1.20;;
57856;SDS011;43683;48.650;9.290;2023-09-18T11:42:08;3.50;;;1.00;;
57856;SDS011;43683;48.650;9.290;2023-09-18T11:44:44;2.63;;;1.08;;
57856;SDS011;43683;48.650;9.290;2023-09-18T11:47:14;2.75;;;1.13;;
57856;SDS011;43683;48.650;9.290;2023-09-18T11:49:46;1.95;;;1.02;;
57856;SDS011;43683;48.650;9.290;2023-09-18T11:52:16;2.28;;;1.13;;
57856;SDS011;43683;48.650;9.290;2023-09-18T11:54:42;1.00;;;0.80;;
57856;SDS011;43683;48.650;9.290;2023-09-18T11:59:39;1.38;;;0.80;;
57856;SDS011;43683;48.650;9.290;2023-09-18T12:02:09;0.98;;;0.75;;
57856;SDS011;43683;48.650;9.290;2023-09-18T12:04:35;1.05;;;0.82;;
57856;SDS011;43683;48.650;9.290;2023-09-18T12:07:02;2.05;;;0.77;;
57856;SDS011;43683;48.650;9.290;2023-09-18T12:09:32;2.75;;;0.90;;
57856;SDS011;43683;48.650;9.290;2023-09-18T12:11:59;2.88;;;1.05;;
57856;SDS011;43683;48.650;9.290;2023-09-18T12:14:29;2.05;;;1.00;;
57856;SDS011;43683;48.650;9.290;2023-09-18T12:16:56;2.95;;;1.23;;
57856;SDS011;43683;48.650;9.290;2023-09-18T12:19:22;1.60;;;0.85;;
57856;SDS011;43683;48.650;9.290;2023-09-18T12:21:48;2.22;;;1.10;;
57856;SDS011;43683;48.650;9.290;2023-09-18T12:24:21;1.75;;;0.90;;
57856;SDS011;43683;48.650;9.290;2023-09-18T12:26:49;1.60;;;0.70;;
57856;SDS011;43683;48.650;9.290;2023-09-18T12:31:42;2.17;;;0.95;;
57856;SDS011;43683;48.650;9.290;2023-09-18T12:34:28;1.02;;;0.80;;
57856;SDS011;43683;48.650;9.290;2023-09-18T12:36:54;1.73;;;1.05;;
57856;SDS011;43683;48.650;9.290;2023-09-18T12:39:20;1.67;;;0.90;;
57856;SDS011;43683;48.650;9.290;2023-09-18T12:41:46;1.85;;;1.00;;
57856;SDS011;43683;48.650;9.290;2023-09-18T12:44:12;2.63;;;0.80;;
57856;SDS011;43683;48.650;9.290;2023-09-18T12:46:41;0.70;;;0.60;;
57856;SDS011;43683;48.650;9.290;2023-09-18T12:49:16;1.40;;;0.98;;
57856;SDS011;43683;48.650;9.290;2023-09-18T12:51:42;1.00;;;0.90;;
57856;SDS011;43683;48.650;9.290;2023-09-18T12:54:09;1.45;;;0.82;;
57856;SDS011;43683;48.650;9.290;2023-09-18T12:56:42;1.90;;;0.93;;
57856;SDS011;43683;48.650;9.290;2023-09-18T12:59:08;2.28;;;0.98;;
57856;SDS011;43683;48.650;9.290;2023-09-18T13:01:34;4.78;;;1.00;;
57856;SDS011;43683;48.650;9.290;2023-09-18T13:04:03;1.05;;;0.80;;
57856;SDS011;43683;48.650;9.290;2023-09-18T13:06:30;3.55;;;1.00;;
57856;SDS011;43683;48.650;9.290;2023-09-18T13:09:14;1.40;;;0.90;;
57856;SDS011;43683;48.650;9.290;2023-09-18T13:11:53;1.23;;;0.75;;
57856;SDS011;43683;48.650;9.290;2023-09-18T13:14:22;1.55;;;1.02;;
57856;SDS011;43683;48.650;9.290;2023-09-18T13:16:48;3.20;;;1.70;;
57856;SDS011;43683;48.650;9.290;2023-09-18T13:19:14;2.90;;;1.08;;
57856;SDS011;43683;48.650;9.290;2023-09-18T13:21:45;0.95;;;0.70;;
57856;SDS011;43683;48.650;9.290;2023-09-18T13:24:23;1.70;;;0.82;;
57856;SDS011;43683;48.650;9.290;2023-09-18T13:26:56;3.72;;;1.00;;
57856;SDS011;43683;48.650;9.290;2023-09-18T13:29:23;2.67;;;0.90;;
57856;SDS011;43683;48.650;9.290;2023-09-18T13:31:49;2.20;;;0.73;;
57856;SDS011;43683;48.650;9.290;2023-09-18T13:34:16;1.58;;;0.80;;
57856;SDS011;43683;48.650;9.290;2023-09-18T13:36:46;2.58;;;0.88;;
57856;SDS011;43683;48.650;9.290;2023-09-18T13:39:14;2.22;;;1.00;;
57856;SDS011;43683;48.650;9.290;2023-09-18T13:41:43;1.20;;;1.10;;
57856;SDS011;43683;48.650;9.290;2023-09-18T13:44:09;1.52;;;0.80;;
57856;SDS011;43683;48.650;9.290;2023-09-18T13:46:35;2.55;;;0.95;;
57856;SDS011;43683;48.650;9.290;2023-09-18T13:49:03;1.25;;;0.68;;
57856;SDS011;43683;48.650;9.290;2023-09-18T13:51:30;1.00;;;0.90;;
57856;SDS011;43683;48.650;9.290;2023-09-18T13:53:56;2.95;;;0.82;;
57856;SDS011;43683;48.650;9.290;2023-09-18T13:56:22;0.95;;;0.80;;
57856;SDS011;43683;48.650;9.290;2023-09-18T13:58:52;2.47;;;0.80;;
57856;SDS011;43683;48.650;9.290;2023-09-18T14:01:20;2.38;;;0.82;;
57856;SDS011;43683;48.650;9.290;2023-09-18T14:03:47;2.35;;;0.80;;
57856;SDS011;43683;48.650;9.290;2023-09-18T14:06:12;1.10;;;0.82;;
57856;SDS011;43683;48.650;9.290;2023-09-18T14:08:38;2.55;;;1.05;;
57856;SDS011;43683;48.650;9.290;2023-09-18T14:11:05;2.30;;;0.98;;
57856;SDS011;43683;48.650;9.290;2023-09-18T14:13:31;3.55;;;1.15;;
57856;SDS011;43683;48.650;9.290;2023-09-18T14:15:57;2.17;;;0.98;;
57856;SDS011;43683;48.650;9.290;2023-09-18T14:18:23;1.67;;;0.90;;
57856;SDS011;43683;48.650;9.290;2023-09-18T14:20:48;1.60;;;0.80;;
57856;SDS011;43683;48.650;9.290;2023-09-18T14:23:14;2.15;;;0.88;;
57856;SDS011;43683;48.650;9.290;2023-09-18T14:25:40;2.40;;;0.82;;
57856;SDS011;43683;48.650;9.290;2023-09-18T14:28:06;3.72;;;1.00;;
57856;SDS011;43683;48.650;9.290;2023-09-18T14:30:32;2.42;;;0.85;;
57856;SDS011;43683;48.650;9.290;2023-09-18T14:32:58;2.60;;;0.90;;
57856;SDS011;43683;48.650;9.290;2023-09-18T14:35:26;1.45;;;0.90;;
57856;SDS011;43683;48.650;9.290;2023-09-18T14:37:52;1.70;;;0.80;;
57856;SDS011;43683;48.650;9.290;2023-09-18T14:40:18;1.40;;;1.00;;
57856;SDS011;43683;48.650;9.290;2023-09-18T14:42:46;1.83;;;0.80;;
57856;SDS011;43683;48.650;9.290;2023-09-18T14:45:11;1.08;;;0.93;;
57856;SDS011;43683;48.650;9.290;2023-09-18T14:47:37;1.92;;;0.98;;
57856;SDS011;43683;48.650;9.290;2023-09-18T14:50:03;2.63;;;1.08;;
57856;SDS011;43683;48.650;9.290;2023-09-18T14:52:30;4.22;;;0.93;;
57856;SDS011;43683;48.650;9.290;2023-09-18T14:54:57;3.47;;;0.82;;
57856;SDS011;43683;48.650;9.290;2023-09-18T14:57:23;3.30;;;0.98;;
57856;SDS011;43683;48.650;9.290;2023-09-18T14:59:48;2.10;;;0.88;;
57856;SDS011;43683;48.650;9.290;2023-09-18T15:02:14;2.50;;;0.70;;
57856;SDS011;43683;48.650;9.290;2023-09-18T15:04:41;3.03;;;1.27;;
57856;SDS011;43683;48.650;9.290;2023-09-18T15:07:07;1.25;;;0.80;;
57856;SDS011;43683;48.650;9.290;2023-09-18T15:09:33;3.67;;;0.80;;
57856;SDS011;43683;48.650;9.290;2023-09-18T15:11:59;1.95;;;0.80;;
57856;SDS011;43683;48.650;9.290;2023-09-18T15:14:24;1.40;;;0.82;;
57856;SDS011;43683;48.650;9.290;2023-09-18T15:16:50;1.52;;;1.00;;